Main page
Satellite images 15-day forecastsClimateMarine weather Cyclones Lightning AirportsFAQ Newsletter About
Weather : Europe Africa North America South America Asia Australia-Oceania Others
Languages Contact

Mangalore, India

Bajpe

latitude: 12-55N, longitude: 074-53E, elevation: 102 m


METAR: out of date (40084 hours)
short-TAF: VOML 221200Z 2215/2224 29005KT 6000 SCT015 SCT020 TEMPO 2215/2221 3000 TSRA/RA SCT010 SCT015 FEW025CB BKN080 TEMPO 2221/2224 3000 RA/DZ SCT006 SCT012 BKN080
long-TAF: VOML 220900Z 2212/2318 29005KT 6000 SCT015 SCT020 TEMPO 2212/2218 3000 TSRA/RA SCT015 FEW025CB BKN080 TEMPO 2221/2303 3000 RA/BR SCT005 SCT012 BKN080 TEMPO 2312/2315 3000 TSRA/RA SCT015 FEW025CB BKN080

Time: 19:13 (13:43 UTC)

Forecast

The report was made 1 hour and 41 minutes ago, at 12:02 UTC  
Forecast valid from 22 at 15 UTC to 22 at 24 UTC
Wind 05 kt from the West/Northwest
Visibility 6000 m
Scattered clouds at a height of 1500 ft
Scattered clouds at a height of 2000 ft
Temporary
from 22 at 15 UTC to 22 at 21 UTC
Visibility 3000 m
Scattered clouds at a height of 1000 ft
Scattered clouds at a height of 1500 ft
Few clouds at a height of 2500 ft , Cumulonimbus.
Broken clouds at a height of 8000 ft
Temporary
from 22 at 21 UTC to 22 at 24 UTC
Visibility 3000 m
Scattered clouds at a height of 600 ft
Scattered clouds at a height of 1200 ft
Broken clouds at a height of 8000 ft

Forecast

The report was made 4 hours and 41 minutes ago, at 09:02 UTC  
Forecast valid from 22 at 12 UTC to 23 at 18 UTC
Wind 05 kt from the West/Northwest
Visibility 6000 m
Scattered clouds at a height of 1500 ft
Scattered clouds at a height of 2000 ft
Temporary
from 22 at 12 UTC to 22 at 18 UTC
Visibility 3000 m
Scattered clouds at a height of 1500 ft
Few clouds at a height of 2500 ft , Cumulonimbus.
Broken clouds at a height of 8000 ft
Temporary
from 22 at 21 UTC to 23 at 03 UTC
Visibility 3000 m
Scattered clouds at a height of 500 ft
Scattered clouds at a height of 1200 ft
Broken clouds at a height of 8000 ft
Temporary
from 23 at 12 UTC to 23 at 15 UTC
Visibility 3000 m
Scattered clouds at a height of 1500 ft
Few clouds at a height of 2500 ft , Cumulonimbus.
Broken clouds at a height of 8000 ft
The information on this site is subject to a disclaimer
Weather : Europe Africa North America South America Asia Australia-Oceania Others
Satellite images 15-day forecastsClimateMarine weather Cyclones Lightning AirportsFAQ Languages Contact Newsletter About